Time;durP1;ratioP1;P1;durP2;ratioP2;P2;SDS_P1;SDS_P2;PMS_P1;PMS_P2;Temp;Humidity;BMP_temperature;BMP_pressure;BME280_temperature;BME280_humidity;BME280_pressure;Samples;Min_cycle;Max_cycle;Signal;HPM_P1;HPM_P2
2022/10/20 00:00:22;;;;;;;8.83;7.93;;;13.40;99.90;;;;;;5072112;28;20242;-70
2022/10/20 00:02:48;;;;;;;9.63;8.70;;;13.30;99.90;;;;;;5071371;28;20194;-70
2022/10/20 00:05:14;;;;;;;9.83;8.50;;;13.30;99.90;;;;;;5051335;28;20172;-70
2022/10/20 00:07:39;;;;;;;11.63;10.53;;;13.30;99.90;;;;;;5067511;28;20172;-70
2022/10/20 00:10:05;;;;;;;12.20;9.60;;;13.20;99.90;;;;;;5051526;28;20248;-70
2022/10/20 00:12:31;;;;;;;12.07;9.47;;;13.20;99.90;;;;;;5051705;28;20181;-71
2022/10/20 00:14:56;;;;;;;12.20;10.63;;;13.10;99.90;;;;;;5051642;28;20397;-71
2022/10/20 00:17:22;;;;;;;11.63;9.23;;;13.10;99.90;;;;;;5041297;28;20203;-71
2022/10/20 00:19:48;;;;;;;10.57;9.17;;;13.10;99.90;;;;;;5071734;28;20652;-71
2022/10/20 00:22:14;;;;;;;9.20;8.30;;;13.10;99.90;;;;;;5071692;28;20243;-71
2022/10/20 00:24:39;;;;;;;14.87;9.57;;;13.00;99.90;;;;;;5072112;28;20539;-71
2022/10/20 00:27:05;;;;;;;20.90;11.30;;;13.00;99.90;;;;;;5071758;28;20501;-70
2022/10/20 00:29:30;;;;;;;9.70;8.70;;;13.00;99.90;;;;;;5053746;28;20187;-71
2022/10/20 00:31:56;;;;;;;13.17;10.87;;;13.00;99.90;;;;;;5074564;28;20166;-71
2022/10/20 00:34:22;;;;;;;14.67;10.83;;;13.00;99.90;;;;;;5075801;28;20256;-71
2022/10/20 00:36:47;;;;;;;13.40;10.10;;;13.10;99.90;;;;;;5075487;28;20257;-71
2022/10/20 00:39:13;;;;;;;11.30;9.20;;;13.00;99.90;;;;;;5075385;28;20191;-70
2022/10/20 00:41:38;;;;;;;13.23;10.23;;;13.10;99.90;;;;;;5075532;28;20614;-71
2022/10/20 00:44:41;;;;;;;9.77;8.27;;;13.10;99.90;;;;;;5075521;28;20565;-70
2022/10/20 00:47:19;;;;;;;10.83;7.70;;;13.10;99.90;;;;;;5074153;28;20178;-70
2022/10/20 00:49:46;;;;;;;14.17;8.00;;;13.10;99.90;;;;;;5075630;28;20905;-70
2022/10/20 00:52:13;;;;;;;11.37;9.50;;;13.00;99.90;;;;;;5075110;28;20487;-71
2022/10/20 00:54:39;;;;;;;9.93;8.50;;;12.90;99.90;;;;;;5057103;28;20405;-71
2022/10/20 00:57:04;;;;;;;12.27;9.80;;;12.90;99.90;;;;;;5075253;28;20427;-70
2022/10/20 00:59:34;;;;;;;13.50;9.43;;;12.90;99.90;;;;;;5075006;28;20186;-71
2022/10/20 01:02:03;;;;;;;10.63;9.53;;;12.90;99.90;;;;;;5074375;28;20279;-71
2022/10/20 01:04:30;;;;;;;15.73;10.07;;;12.90;99.90;;;;;;5075477;28;20542;-71
2022/10/20 01:06:57;;;;;;;13.30;10.50;;;12.80;99.90;;;;;;5057464;28;20565;-71
2022/10/20 01:09:23;;;;;;;11.33;10.13;;;12.90;99.90;;;;;;5075046;28;20455;-71
2022/10/20 01:12:05;;;;;;;14.70;12.97;;;12.90;99.90;;;;;;5057049;28;20419;-71
2022/10/20 01:15:06;;;;;;;15.73;11.60;;;12.90;99.90;;;;;;5057726;28;20517;-71
2022/10/20 01:17:47;;;;;;;12.30;10.90;;;12.90;99.90;;;;;;5032032;28;20440;-71
2022/10/20 01:20:45;;;;;;;10.63;9.00;;;12.90;99.90;;;;;;5070856;28;20795;-71
2022/10/20 01:23:33;;;;;;;10.20;9.20;;;12.90;99.90;;;;;;5074888;28;20933;-71
2022/10/20 01:26:38;;;;;;;12.60;9.60;;;12.80;99.90;;;;;;5075057;28;20831;-71
2022/10/20 01:29:39;;;;;;;11.47;9.70;;;12.70;99.90;;;;;;5056778;28;20837;-71
2022/10/20 01:32:19;;;;;;;13.07;9.83;;;12.70;99.90;;;;;;5074420;28;20962;-71
2022/10/20 01:35:04;;;;;;;14.77;11.27;;;12.70;99.90;;;;;;5074303;28;20388;-71
2022/10/20 01:37:38;;;;;;;10.40;9.30;;;12.80;99.90;;;;;;5074357;28;20790;-71
2022/10/20 01:40:26;;;;;;;14.57;10.67;;;12.80;99.90;;;;;;5073943;28;20822;-71
2022/10/20 01:42:55;;;;;;;11.43;9.30;;;12.80;99.90;;;;;;5073615;28;20981;-71
2022/10/20 01:45:24;;;;;;;15.73;12.10;;;12.80;99.90;;;;;;5074066;28;20411;-70
2022/10/20 01:47:52;;;;;;;13.47;10.67;;;12.80;99.90;;;;;;5072689;28;20424;-71
2022/10/20 01:50:19;;;;;;;13.37;9.60;;;12.90;99.90;;;;;;5074013;28;20420;-71
2022/10/20 01:52:45;;;;;;;30.17;12.60;;;12.90;99.90;;;;;;5074168;28;20404;-70
2022/10/20 01:55:16;;;;;;;13.77;11.00;;;12.90;99.90;;;;;;5073924;28;20453;-70
2022/10/20 01:57:50;;;;;;;12.00;10.70;;;12.90;99.90;;;;;;5074430;28;20574;-70
2022/10/20 02:00:17;;;;;;;13.87;10.90;;;12.90;99.90;;;;;;5056071;28;20436;-70
2022/10/20 02:03:01;;;;;;;14.33;10.80;;;12.80;99.90;;;;;;5055662;28;20476;-70
2022/10/20 02:05:44;;;;;;;14.47;11.70;;;12.70;99.90;;;;;;5074004;28;20849;-70
2022/10/20 02:08:30;;;;;;;12.30;9.13;;;12.70;99.90;;;;;;5074162;28;20384;-70
2022/10/20 02:11:00;;;;;;;14.77;12.17;;;12.60;99.90;;;;;;5073945;28;20467;-70
2022/10/20 02:13:29;;;;;;;13.30;10.80;;;12.60;99.90;;;;;;5073971;28;20388;-70
2022/10/20 02:15:59;;;;;;;12.07;10.10;;;12.70;99.90;;;;;;5073926;28;20424;-71
2022/10/20 02:18:31;;;;;;;13.27;11.80;;;12.70;99.90;;;;;;5073391;28;20418;-70
2022/10/20 02:21:01;;;;;;;22.37;13.20;;;12.70;99.90;;;;;;5073858;28;20859;-71
2022/10/20 02:23:30;;;;;;;13.93;11.70;;;12.60;99.90;;;;;;5073850;28;20423;-70
2022/10/20 02:25:58;;;;;;;14.87;10.47;;;12.60;99.90;;;;;;5073798;28;20411;-70
2022/10/20 02:28:26;;;;;;;17.87;12.60;;;12.60;99.90;;;;;;5073626;28;20404;-70
2022/10/20 02:30:51;;;;;;;22.93;13.30;;;12.60;99.90;;;;;;5073439;28;20405;-70
2022/10/20 02:33:18;;;;;;;15.40;12.73;;;12.50;99.90;;;;;;5072973;28;20424;-71
2022/10/20 02:35:55;;;;;;;17.13;13.70;;;12.60;99.90;;;;;;5073357;28;20296;-71
2022/10/20 02:38:21;;;;;;;13.73;10.40;;;12.50;99.90;;;;;;5073452;28;20779;-71
2022/10/20 02:40:47;;;;;;;12.73;11.30;;;12.50;99.90;;;;;;5055169;28;20403;-71
2022/10/20 02:43:13;;;;;;;18.03;13.20;;;12.50;99.90;;;;;;5073152;28;20692;-71
2022/10/20 02:45:38;;;;;;;15.60;12.27;;;12.50;99.90;;;;;;5073304;28;20585;-71
2022/10/20 02:48:05;;;;;;;16.50;12.77;;;12.60;99.90;;;;;;5071831;28;20217;-70
2022/10/20 02:50:30;;;;;;;12.97;11.63;;;12.60;99.90;;;;;;5072926;28;20192;-70
2022/10/20 02:52:56;;;;;;;15.30;11.20;;;12.60;99.90;;;;;;5072899;28;20433;-70
2022/10/20 02:55:21;;;;;;;19.90;13.73;;;12.60;99.90;;;;;;5072065;28;20174;-70
2022/10/20 02:57:47;;;;;;;17.30;13.13;;;12.50;99.90;;;;;;5072139;28;20257;-71
2022/10/20 03:00:13;;;;;;;15.10;11.93;;;12.50;99.90;;;;;;5069431;28;20279;-71
2022/10/20 03:02:38;;;;;;;17.20;12.77;;;12.60;99.90;;;;;;5034631;28;20568;-71
2022/10/20 03:05:05;;;;;;;17.47;13.80;;;12.60;99.90;;;;;;5052597;28;20431;-71
2022/10/20 03:07:30;;;;;;;18.77;14.63;;;12.50;99.90;;;;;;5052889;28;20586;-71
2022/10/20 03:09:56;;;;;;;14.50;11.20;;;12.40;99.90;;;;;;5052662;28;20524;-71
2022/10/20 03:12:21;;;;;;;23.83;15.77;;;12.50;99.90;;;;;;5064150;28;20239;-71
2022/10/20 03:14:47;;;;;;;16.93;11.70;;;12.40;99.90;;;;;;5072478;28;20166;-71
2022/10/20 03:17:12;;;;;;;15.73;11.40;;;12.40;99.90;;;;;;5072246;28;20164;-71
2022/10/20 03:19:39;;;;;;;16.23;13.13;;;12.40;99.90;;;;;;5054198;28;20219;-70
2022/10/20 03:22:05;;;;;;;15.27;13.00;;;12.40;99.90;;;;;;5072429;28;20228;-70
2022/10/20 03:24:30;;;;;;;20.63;14.40;;;12.30;99.90;;;;;;5072360;28;20467;-70
2022/10/20 03:26:56;;;;;;;19.33;15.10;;;12.40;99.90;;;;;;5071978;28;20164;-70
2022/10/20 03:29:21;;;;;;;14.63;11.77;;;12.40;99.90;;;;;;5072061;28;20239;-70
2022/10/20 03:31:47;;;;;;;14.37;11.40;;;12.50;99.90;;;;;;5072249;28;20640;-71
2022/10/20 03:34:12;;;;;;;19.83;14.10;;;12.50;99.90;;;;;;5071968;28;20592;-71
2022/10/20 03:36:38;;;;;;;19.40;14.77;;;12.60;99.90;;;;;;5072109;28;20633;-71
2022/10/20 03:39:04;;;;;;;14.67;12.50;;;12.60;99.90;;;;;;5071504;28;20273;-71
2022/10/20 03:41:29;;;;;;;15.23;11.83;;;12.50;99.90;;;;;;5071812;28;20198;-71
2022/10/20 03:43:55;;;;;;;14.60;12.43;;;12.60;99.90;;;;;;5071955;28;20166;-71
2022/10/20 03:46:20;;;;;;;18.13;14.03;;;12.70;99.90;;;;;;5072077;28;20164;-71
2022/10/20 03:48:46;;;;;;;12.90;11.57;;;12.70;99.90;;;;;;5070427;28;20657;-71
2022/10/20 03:51:13;;;;;;;21.33;13.47;;;12.80;99.90;;;;;;5072067;28;20238;-71
2022/10/20 03:53:39;;;;;;;15.70;12.63;;;12.70;99.90;;;;;;5071823;28;20166;-70
2022/10/20 03:56:08;;;;;;;17.33;12.70;;;12.70;99.90;;;;;;5071846;28;20496;-71
2022/10/20 03:58:34;;;;;;;12.50;10.37;;;12.80;99.90;;;;;;5071646;28;20227;-71
2022/10/20 04:01:00;;;;;;;18.13;13.73;;;12.90;99.90;;;;;;5071725;28;20971;-71
2022/10/20 04:03:26;;;;;;;17.47;14.23;;;12.90;99.90;;;;;;5071512;28;20246;-70
2022/10/20 04:05:51;;;;;;;15.70;14.00;;;12.90;99.90;;;;;;5074274;28;20724;-71
2022/10/20 04:08:17;;;;;;;17.57;14.80;;;12.80;99.90;;;;;;5060181;28;20167;-71
2022/10/20 04:10:42;;;;;;;25.70;20.90;;;12.80;99.90;;;;;;5078866;28;20211;-71
2022/10/20 04:13:08;;;;;;;22.03;17.63;;;12.80;99.90;;;;;;5077461;28;20167;-71
2022/10/20 04:15:34;;;;;;;24.67;15.60;;;12.90;99.90;;;;;;5078354;28;20247;-71
2022/10/20 04:17:59;;;;;;;19.43;16.57;;;12.90;99.90;;;;;;5077974;28;20249;-71
2022/10/20 04:20:25;;;;;;;27.40;16.30;;;12.90;99.90;;;;;;5078385;28;20198;-70
2022/10/20 04:22:50;;;;;;;16.90;15.10;;;12.90;99.90;;;;;;5078095;28;20292;-71
2022/10/20 04:25:16;;;;;;;26.60;18.43;;;12.90;99.90;;;;;;5078093;28;20194;-71
2022/10/20 04:27:42;;;;;;;15.90;13.90;;;12.90;99.90;;;;;;5078094;28;20172;-72
2022/10/20 04:30:08;;;;;;;21.40;17.77;;;12.90;99.90;;;;;;5059715;28;20188;-71
2022/10/20 04:32:34;;;;;;;27.10;22.47;;;12.90;99.90;;;;;;5078143;28;20237;-71
2022/10/20 04:34:59;;;;;;;29.60;23.83;;;12.90;99.90;;;;;;5077775;28;20411;-71
2022/10/20 04:37:25;;;;;;;19.90;17.00;;;13.00;99.90;;;;;;5059946;28;20712;-70
2022/10/20 04:39:51;;;;;;;16.50;14.77;;;13.00;99.90;;;;;;5078129;28;20190;-71
2022/10/20 04:42:17;;;;;;;15.80;14.10;;;13.10;99.90;;;;;;5078306;28;20256;-71
2022/10/20 04:44:43;;;;;;;16.27;14.03;;;13.10;99.90;;;;;;5077944;28;20703;-71
2022/10/20 04:47:09;;;;;;;19.60;16.97;;;13.10;99.90;;;;;;5059760;28;20424;-71
2022/10/20 04:49:34;;;;;;;17.63;15.13;;;13.10;99.90;;;;;;5076691;28;20622;-71
2022/10/20 04:52:00;;;;;;;28.40;17.80;;;13.10;99.90;;;;;;5078201;28;20313;-71
2022/10/20 04:54:25;;;;;;;20.80;17.53;;;13.20;99.90;;;;;;5059932;28;20202;-71
2022/10/20 04:56:51;;;;;;;29.03;21.23;;;13.10;99.90;;;;;;5078010;28;20259;-71
2022/10/20 04:59:16;;;;;;;25.00;18.80;;;13.20;99.90;;;;;;5078556;28;20182;-71
2022/10/20 05:01:42;;;;;;;25.83;18.27;;;13.10;99.90;;;;;;5077647;28;20193;-71
2022/10/20 05:04:09;;;;;;;19.43;15.53;;;13.20;99.90;;;;;;5077252;28;20171;-71
2022/10/20 05:06:34;;;;;;;22.73;15.00;;;13.30;99.90;;;;;;5077812;28;20174;-71
2022/10/20 05:09:05;;;;;;;17.77;14.70;;;13.30;99.90;;;;;;5077618;28;20807;-71
2022/10/20 05:11:34;;;;;;;21.30;15.53;;;13.30;99.90;;;;;;5059574;28;20195;-71
2022/10/20 05:14:00;;;;;;;17.07;15.27;;;13.30;99.90;;;;;;5077572;28;20455;-71
2022/10/20 05:16:26;;;;;;;23.23;16.37;;;13.40;99.90;;;;;;5077726;28;20779;-71
2022/10/20 05:18:53;;;;;;;21.67;14.73;;;13.40;99.90;;;;;;5072658;28;20541;-70
2022/10/20 05:21:21;;;;;;;14.90;13.00;;;13.30;99.90;;;;;;5074212;28;20474;-71
2022/10/20 05:23:47;;;;;;;20.63;15.97;;;13.40;99.90;;;;;;5074375;28;20885;-70
2022/10/20 05:26:15;;;;;;;18.33;15.10;;;13.40;99.90;;;;;;5074320;28;20416;-71
2022/10/20 05:28:46;;;;;;;23.57;18.33;;;13.30;99.90;;;;;;5073360;28;20524;-70
2022/10/20 05:31:12;;;;;;;17.63;15.17;;;13.40;99.90;;;;;;5074374;28;20413;-71
2022/10/20 05:33:38;;;;;;;17.70;14.70;;;13.40;99.90;;;;;;5052665;28;20417;-70
2022/10/20 05:36:11;;;;;;;20.60;15.53;;;13.50;99.90;;;;;;5074400;28;20399;-70
2022/10/20 05:38:38;;;;;;;18.37;14.73;;;13.50;99.90;;;;;;5074188;28;20401;-70
2022/10/20 05:41:11;;;;;;;17.63;13.57;;;13.50;99.90;;;;;;5074124;28;20407;-70
2022/10/20 05:43:37;;;;;;;24.63;17.93;;;13.60;99.90;;;;;;5074237;28;20827;-71
2022/10/20 05:46:04;;;;;;;27.00;19.20;;;13.60;99.90;;;;;;5074126;28;20513;-70
2022/10/20 05:48:30;;;;;;;17.80;14.80;;;13.60;99.90;;;;;;5054600;28;20419;-71
2022/10/20 05:51:05;;;;;;;14.53;12.90;;;13.70;99.90;;;;;;5072980;28;20431;-71
2022/10/20 05:53:30;;;;;;;22.00;16.83;;;13.70;99.90;;;;;;5065296;28;20471;-70
2022/10/20 05:56:02;;;;;;;19.47;15.03;;;13.70;99.90;;;;;;5074515;28;20414;-70
2022/10/20 05:58:28;;;;;;;18.73;16.67;;;13.60;99.90;;;;;;5074084;28;20184;-71
2022/10/20 06:00:53;;;;;;;22.97;17.33;;;13.60;99.90;;;;;;5074171;28;20885;-70
2022/10/20 06:03:19;;;;;;;20.53;15.17;;;13.60;99.90;;;;;;5073459;28;20259;-71
2022/10/20 06:05:44;;;;;;;20.07;16.50;;;13.70;99.90;;;;;;5073909;28;20176;-70
2022/10/20 06:08:10;;;;;;;20.10;15.37;;;13.60;99.90;;;;;;5074772;28;20170;-71
2022/10/20 06:10:36;;;;;;;17.07;13.47;;;13.70;99.90;;;;;;5073941;28;20192;-71
2022/10/20 06:13:01;;;;;;;20.70;16.87;;;13.70;99.90;;;;;;5073950;28;20433;-70
2022/10/20 06:15:27;;;;;;;17.07;13.80;;;13.70;99.90;;;;;;5074048;28;20186;-70
2022/10/20 06:17:52;;;;;;;17.67;14.10;;;13.70;99.90;;;;;;5073547;28;20614;-70
2022/10/20 06:20:18;;;;;;;16.63;13.40;;;13.70;99.90;;;;;;5073277;28;20187;-70
2022/10/20 06:22:43;;;;;;;15.27;12.73;;;13.80;99.90;;;;;;5073718;28;20219;-70
2022/10/20 06:25:09;;;;;;;19.90;14.70;;;13.70;99.90;;;;;;5062809;28;20653;-71
2022/10/20 06:27:34;;;;;;;15.17;12.83;;;13.80;99.90;;;;;;5054468;28;20549;-71
2022/10/20 06:30:00;;;;;;;14.40;12.50;;;13.80;99.90;;;;;;5053743;28;20612;-71
2022/10/20 06:32:26;;;;;;;16.40;13.70;;;13.90;99.90;;;;;;5053875;28;20712;-71
2022/10/20 06:34:53;;;;;;;14.80;11.90;;;14.00;99.90;;;;;;5053064;28;20184;-71
2022/10/20 06:37:18;;;;;;;19.77;14.90;;;14.00;99.90;;;;;;5053509;28;20183;-72
2022/10/20 06:39:44;;;;;;;16.23;13.20;;;14.00;99.90;;;;;;5053374;28;20506;-69
2022/10/20 06:42:09;;;;;;;13.53;11.97;;;14.00;99.90;;;;;;5053214;28;20197;-72
2022/10/20 06:44:35;;;;;;;13.17;11.43;;;14.10;99.90;;;;;;5053260;28;20460;-71
2022/10/20 06:47:00;;;;;;;15.50;13.90;;;14.20;99.90;;;;;;5053528;28;20796;-72
2022/10/20 06:49:26;;;;;;;17.40;13.93;;;14.10;99.90;;;;;;5068056;28;20321;-73
2022/10/20 06:51:52;;;;;;;15.70;12.77;;;13.90;99.90;;;;;;5055154;28;20208;-70
2022/10/20 06:54:17;;;;;;;16.23;14.20;;;14.00;99.90;;;;;;5073412;28;20250;-72
2022/10/20 06:56:43;;;;;;;13.47;12.07;;;14.10;99.90;;;;;;5073187;28;20253;-72
2022/10/20 06:59:08;;;;;;;15.90;13.10;;;14.20;99.90;;;;;;5073688;28;20225;-72
2022/10/20 07:01:36;;;;;;;17.50;15.70;;;14.30;99.90;;;;;;5073069;28;20204;-72
2022/10/20 07:04:06;;;;;;;16.40;13.97;;;14.20;99.90;;;;;;5073205;28;20260;-72
2022/10/20 07:06:34;;;;;;;17.03;15.23;;;14.20;99.90;;;;;;5054428;28;20415;-72
2022/10/20 07:09:02;;;;;;;18.83;14.23;;;14.40;99.90;;;;;;5072627;28;20917;-72
2022/10/20 07:11:30;;;;;;;16.80;14.77;;;14.50;99.90;;;;;;5073170;28;20423;-72
2022/10/20 07:13:57;;;;;;;16.50;12.87;;;14.50;99.90;;;;;;5054932;28;20414;-72
2022/10/20 07:16:25;;;;;;;14.43;12.60;;;14.60;99.90;;;;;;5072609;28;20898;-72
2022/10/20 07:18:51;;;;;;;18.97;15.60;;;14.60;99.90;;;;;;5072139;28;20850;-72
2022/10/20 07:21:19;;;;;;;15.90;14.20;;;14.60;99.90;;;;;;5071882;28;20448;-70
2022/10/20 07:23:45;;;;;;;16.73;14.13;;;14.60;99.90;;;;;;5072709;28;20423;-71
2022/10/20 07:26:17;;;;;;;14.57;12.53;;;14.70;99.90;;;;;;5072359;28;20406;-70
2022/10/20 07:28:45;;;;;;;17.27;13.63;;;14.80;99.90;;;;;;5072459;28;20430;-71
2022/10/20 07:31:15;;;;;;;12.83;10.97;;;14.90;99.90;;;;;;5072452;28;20430;-71
2022/10/20 07:33:40;;;;;;;11.17;9.97;;;15.00;99.90;;;;;;5072765;28;20435;-70
2022/10/20 07:36:29;;;;;;;14.00;12.47;;;15.10;99.90;;;;;;5072039;28;20404;-71
2022/10/20 07:38:57;;;;;;;11.07;10.07;;;15.00;99.90;;;;;;5072636;28;20181;-71
2022/10/20 07:41:23;;;;;;;12.93;10.33;;;15.00;99.90;;;;;;5071533;28;20537;-71
2022/10/20 07:43:48;;;;;;;11.10;9.90;;;14.90;99.90;;;;;;5071664;28;20409;-71
2022/10/20 07:46:15;;;;;;;11.03;9.93;;;15.00;99.90;;;;;;5072551;28;20465;-72
2022/10/20 07:48:40;;;;;;;10.60;9.50;;;15.10;99.90;;;;;;5072336;28;20212;-70
2022/10/20 07:51:23;;;;;;;11.60;10.40;;;15.20;99.90;;;;;;5071305;28;20417;-71
2022/10/20 07:53:50;;;;;;;11.43;8.63;;;15.30;99.90;;;;;;5073239;28;20147;-71
2022/10/20 07:56:16;;;;;;;9.93;8.90;;;15.20;99.90;;;;;;5073138;28;20415;-71
2022/10/20 07:58:42;;;;;;;9.40;8.57;;;15.30;99.90;;;;;;5072583;28;20850;-71
2022/10/20 08:01:09;;;;;;;11.10;9.57;;;15.40;99.90;;;;;;5072018;28;20251;-72
2022/10/20 08:03:35;;;;;;;11.00;9.90;;;15.40;99.90;;;;;;5072732;28;20910;-71
2022/10/20 08:06:00;;;;;;;12.53;9.50;;;15.50;99.90;;;;;;5071771;28;20413;-72
2022/10/20 08:08:26;;;;;;;10.17;9.17;;;15.60;99.90;;;;;;5071782;28;20247;-71
2022/10/20 08:10:52;;;;;;;18.43;9.10;;;15.50;99.90;;;;;;5072461;28;20171;-73
2022/10/20 08:13:17;;;;;;;10.57;9.57;;;15.40;99.90;;;;;;5072080;28;20579;-73
2022/10/20 08:15:43;;;;;;;10.00;9.00;;;15.50;99.90;;;;;;5071865;28;20674;-71
2022/10/20 08:18:08;;;;;;;9.80;8.87;;;15.60;99.90;;;;;;5071964;28;20524;-72
2022/10/20 08:20:34;;;;;;;9.70;8.80;;;15.50;99.90;;;;;;5071641;28;20204;-70
2022/10/20 08:22:59;;;;;;;9.53;8.33;;;15.60;99.90;;;;;;5071628;28;20202;-71
2022/10/20 08:25:25;;;;;;;10.37;9.33;;;15.90;99.90;;;;;;5071372;28;20244;-72
2022/10/20 08:27:51;;;;;;;8.73;7.90;;;15.90;99.90;;;;;;5070341;28;20174;-71
2022/10/20 08:30:16;;;;;;;9.33;8.40;;;16.00;99.90;;;;;;5070663;28;20189;-71
2022/10/20 08:32:42;;;;;;;10.10;8.43;;;16.10;99.90;;;;;;5071342;28;20165;-70
2022/10/20 08:35:08;;;;;;;9.13;7.90;;;16.10;99.90;;;;;;5053053;28;20648;-72
2022/10/20 08:37:35;;;;;;;7.87;7.10;;;16.10;99.90;;;;;;5053363;28;20211;-71
2022/10/20 08:40:02;;;;;;;8.67;7.87;;;16.40;99.90;;;;;;5071477;28;20580;-71
2022/10/20 08:42:28;;;;;;;9.83;8.23;;;16.40;99.90;;;;;;5071345;28;20508;-71
2022/10/20 08:44:58;;;;;;;9.33;8.27;;;16.20;99.90;;;;;;5070174;28;20423;-70
2022/10/20 08:47:31;;;;;;;9.30;7.53;;;16.20;99.90;;;;;;5055491;28;20179;-73
2022/10/20 08:49:58;;;;;;;8.73;7.70;;;16.20;99.90;;;;;;5054459;28;20800;-71
2022/10/20 08:52:25;;;;;;;8.33;7.43;;;16.40;99.90;;;;;;5071837;28;20436;-70
2022/10/20 08:54:56;;;;;;;7.80;7.00;;;16.60;99.90;;;;;;5075441;28;20404;-72
2022/10/20 08:57:30;;;;;;;7.40;6.60;;;16.90;99.90;;;;;;5075361;28;20390;-72
2022/10/20 09:00:17;;;;;;;8.53;6.80;;;17.20;99.90;;;;;;5056878;28;20439;-72
2022/10/20 09:02:44;;;;;;;9.37;8.37;;;17.50;99.90;;;;;;5075267;28;20909;-72
2022/10/20 09:05:12;;;;;;;7.60;6.90;;;17.20;99.90;;;;;;5074729;28;20534;-73
2022/10/20 09:07:38;;;;;;;7.27;6.57;;;16.90;99.90;;;;;;5074951;28;20400;-71
2022/10/20 09:10:35;;;;;;;8.00;7.03;;;16.80;99.90;;;;;;5074552;28;20454;-71
2022/10/20 09:13:05;;;;;;;7.50;6.77;;;17.00;99.90;;;;;;5074865;28;20407;-71
2022/10/20 09:15:31;;;;;;;6.17;5.57;;;16.90;99.90;;;;;;5074108;28;20408;-71
2022/10/20 09:18:05;;;;;;;7.77;6.87;;;17.20;99.90;;;;;;5074697;28;20409;-71
2022/10/20 09:20:36;;;;;;;10.50;6.73;;;17.30;99.90;;;;;;5074272;28;20978;-71
2022/10/20 09:23:01;;;;;;;9.13;8.23;;;17.20;99.90;;;;;;5074611;28;21010;-71
2022/10/20 09:25:27;;;;;;;7.93;7.13;;;17.20;99.90;;;;;;5074600;28;20491;-70
2022/10/20 09:27:55;;;;;;;8.47;7.67;;;17.30;99.90;;;;;;5074486;28;20279;-71
2022/10/20 09:30:32;;;;;;;7.03;6.33;;;17.20;99.90;;;;;;5074056;28;20200;-70
2022/10/20 09:32:57;;;;;;;6.80;6.10;;;17.30;99.90;;;;;;5074962;28;20776;-71
2022/10/20 09:35:32;;;;;;;11.97;7.13;;;17.60;99.90;;;;;;5074385;28;20492;-69
2022/10/20 09:38:03;;;;;;;5.97;5.40;;;17.70;99.90;;;;;;5074788;28;20616;-70
2022/10/20 09:40:29;;;;;;;8.10;6.40;;;18.00;99.90;;;;;;5074499;28;20428;-71
2022/10/20 09:43:01;;;;;;;7.40;6.80;;;18.00;99.90;;;;;;5074750;28;20448;-70
2022/10/20 09:45:30;;;;;;;7.50;6.50;;;18.00;99.90;;;;;;5072172;28;20405;-70
2022/10/20 09:48:16;;;;;;;8.10;6.13;;;17.90;99.90;;;;;;5073996;28;20404;-72
2022/10/20 09:50:46;;;;;;;7.43;6.73;;;17.70;99.90;;;;;;5071026;28;20446;-72
2022/10/20 09:53:24;;;;;;;7.03;6.37;;;17.60;99.90;;;;;;5074405;28;20407;-74
2022/10/20 09:55:50;;;;;;;9.20;5.90;;;17.70;99.90;;;;;;5074361;28;20818;-71
2022/10/20 09:58:27;;;;;;;9.20;6.50;;;17.90;99.90;;;;;;5074547;28;20454;-72
2022/10/20 10:01:00;;;;;;;7.10;6.47;;;17.90;99.90;;;;;;5074547;28;20515;-72
2022/10/20 10:03:26;;;;;;;6.90;5.90;;;17.90;99.90;;;;;;5073811;28;20412;-72
2022/10/20 10:05:57;;;;;;;5.97;5.47;;;18.20;99.90;;;;;;5073975;28;20393;-72
2022/10/20 10:08:39;;;;;;;7.80;6.43;;;18.40;99.90;;;;;;5074024;28;20381;-73
2022/10/20 10:11:16;;;;;;;7.17;6.47;;;18.60;99.90;;;;;;5071142;28;20428;-73
2022/10/20 10:13:47;;;;;;;9.03;6.53;;;18.50;99.90;;;;;;5054141;28;20416;-73
2022/10/20 10:16:16;;;;;;;8.10;7.30;;;18.70;99.90;;;;;;5053879;28;20382;-71
2022/10/20 10:18:55;;;;;;;7.27;6.20;;;18.70;99.90;;;;;;5056356;28;20444;-72
2022/10/20 10:21:21;;;;;;;8.50;7.57;;;18.60;99.90;;;;;;5074000;28;20493;-72
2022/10/20 10:24:02;;;;;;;9.27;7.13;;;18.60;99.90;;;;;;5074090;28;20401;-72
2022/10/20 10:26:51;;;;;;;8.97;6.80;;;18.70;99.90;;;;;;5074137;28;20154;-71
2022/10/20 10:29:28;;;;;;;6.70;6.03;;;18.80;99.90;;;;;;5073880;28;21114;-72
2022/10/20 10:32:13;;;;;;;8.10;6.93;;;19.00;99.90;;;;;;5074086;28;20855;-73
2022/10/20 10:35:09;;;;;;;7.37;6.67;;;19.20;99.90;;;;;;5073210;28;20396;-78
2022/10/20 10:37:37;;;;;;;7.73;6.30;;;19.30;99.90;;;;;;5053890;28;20476;-74
2022/10/20 10:40:18;;;;;;;7.07;5.83;;;19.50;99.90;;;;;;5053813;28;20472;-72
2022/10/20 10:43:28;;;;;;;11.00;6.57;;;19.60;99.90;;;;;;5053617;28;20461;-72
2022/10/20 10:46:03;;;;;;;9.07;6.53;;;19.60;99.90;;;;;;5020922;28;20435;-72
2022/10/20 10:49:00;;;;;;;9.60;8.00;;;19.90;99.90;;;;;;5053110;28;20413;-72
2022/10/20 10:51:48;;;;;;;7.47;6.40;;;19.70;99.90;;;;;;5063545;28;20918;-73
2022/10/20 10:54:54;;;;;;;7.50;5.60;;;19.70;99.90;;;;;;5072987;28;20483;-73
2022/10/20 10:57:49;;;;;;;7.33;6.10;;;19.80;99.90;;;;;;5073468;28;20392;-73
2022/10/20 11:00:55;;;;;;;6.33;5.73;;;20.00;99.90;;;;;;5031699;28;20432;-73
2022/10/20 11:03:36;;;;;;;10.33;6.33;;;19.70;99.90;;;;;;5073378;28;20432;-73
2022/10/20 11:06:10;;;;;;;6.67;6.07;;;19.40;99.90;;;;;;5072861;28;20413;-74
2022/10/20 11:09:07;;;;;;;7.20;6.37;;;19.30;99.90;;;;;;5073277;28;20411;-74
2022/10/20 11:12:11;;;;;;;10.80;6.60;;;19.30;99.90;;;;;;5063505;28;20956;-74
2022/10/20 11:14:37;;;;;;;7.57;6.77;;;19.00;99.90;;;;;;5073470;28;20405;-73
2022/10/20 11:17:14;;;;;;;8.40;5.80;;;19.10;99.90;;;;;;5072617;28;20491;-73
2022/10/20 11:20:11;;;;;;;7.27;6.60;;;19.20;99.90;;;;;;5072973;28;20343;-72
2022/10/20 11:22:54;;;;;;;7.13;6.40;;;19.00;99.90;;;;;;5072328;28;20543;-73
2022/10/20 11:25:39;;;;;;;6.63;5.80;;;18.70;99.90;;;;;;5072805;28;20412;-73
2022/10/20 11:28:28;;;;;;;8.60;6.53;;;19.20;99.90;;;;;;5071044;28;20420;-74
2022/10/20 11:30:57;;;;;;;6.30;5.70;;;19.50;99.90;;;;;;5072470;28;20381;-72
2022/10/20 11:33:31;;;;;;;5.97;5.37;;;19.70;99.90;;;;;;5072460;28;20457;-72
2022/10/20 11:36:07;;;;;;;8.00;5.50;;;19.80;99.90;;;;;;5072531;28;20403;-72
2022/10/20 11:38:54;;;;;;;6.40;5.80;;;19.90;99.90;;;;;;5070816;28;20423;-72
2022/10/20 11:41:33;;;;;;;6.50;5.90;;;19.90;99.90;;;;;;5071684;28;20389;-72
2022/10/20 11:44:26;;;;;;;7.47;6.77;;;19.60;99.90;;;;;;5033906;28;20402;-71
2022/10/20 11:47:05;;;;;;;6.33;5.73;;;19.20;99.90;;;;;;5052498;28;20378;-72
2022/10/20 11:49:32;;;;;;;9.23;7.53;;;19.10;99.90;;;;;;5060711;28;20527;-72
2022/10/20 11:52:03;;;;;;;6.97;5.30;;;19.20;99.90;;;;;;5072000;28;20435;-71
2022/10/20 11:54:51;;;;;;;5.93;5.03;;;19.20;99.90;;;;;;5072411;28;20411;-71
2022/10/20 11:57:41;;;;;;;11.53;5.27;;;19.40;99.90;;;;;;5072103;28;20428;-72
2022/10/20 12:00:21;;;;;;;7.17;6.10;;;19.60;99.90;;;;;;5071966;28;20412;-73
2022/10/20 12:03:08;;;;;;;7.10;6.40;;;19.50;99.90;;;;;;5072038;28;20436;-72
2022/10/20 12:06:16;;;;;;;7.73;5.93;;;19.20;99.90;;;;;;5070009;28;20474;-73
2022/10/20 12:09:14;;;;;;;8.50;6.03;;;19.00;99.90;;;;;;5026008;28;20444;-70
2022/10/20 12:12:00;;;;;;;5.47;4.97;;;19.20;99.90;;;;;;5001115;28;20422;-70
2022/10/20 12:14:37;;;;;;;6.20;5.03;;;19.40;99.90;;;;;;5052171;28;20393;-70
2022/10/20 12:17:21;;;;;;;5.90;5.30;;;19.40;99.90;;;;;;5051643;28;20786;-70
2022/10/20 12:19:50;;;;;;;5.97;5.17;;;19.40;99.90;;;;;;5062352;28;20428;-71
2022/10/20 12:22:15;;;;;;;6.13;5.53;;;19.50;99.90;;;;;;5053111;28;20522;-70
2022/10/20 12:24:53;;;;;;;6.70;5.20;;;19.50;99.90;;;;;;5071640;28;20392;-70
2022/10/20 12:27:23;;;;;;;5.10;4.70;;;19.50;99.90;;;;;;5073471;28;20639;-70
2022/10/20 12:30:17;;;;;;;8.10;6.03;;;19.30;99.90;;;;;;5075307;28;20461;-72
2022/10/20 12:32:59;;;;;;;6.83;5.00;;;19.60;99.90;;;;;;5052985;28;20420;-72
2022/10/20 12:35:48;;;;;;;7.03;4.50;;;19.80;99.90;;;;;;5075171;28;20385;-72
2022/10/20 12:38:17;;;;;;;8.63;5.17;;;19.90;99.90;;;;;;5075195;28;20415;-70
2022/10/20 12:40:48;;;;;;;5.50;4.67;;;20.10;99.90;;;;;;5075087;28;20534;-71
2022/10/20 12:43:46;;;;;;;4.97;4.50;;;20.20;99.90;;;;;;5075115;28;20445;-72
2022/10/20 12:46:25;;;;;;;7.33;4.90;;;20.10;99.90;;;;;;5074337;28;20408;-70
2022/10/20 12:48:58;;;;;;;4.93;4.30;;;20.00;99.90;;;;;;5075031;28;20523;-70
2022/10/20 12:51:34;;;;;;;6.67;5.10;;;19.90;99.90;;;;;;5073437;28;20456;-71
2022/10/20 12:54:06;;;;;;;6.10;4.77;;;19.80;99.90;;;;;;5074999;28;20414;-72
2022/10/20 12:56:37;;;;;;;4.60;4.10;;;19.70;99.90;;;;;;5056972;28;20867;-71